MDT,Max TemperatureF,Mean TemperatureF,Min TemperatureF,Max Dew PointF,MeanDew PointF,Min DewpointF,Max Humidity, Mean Humidity, Min Humidity, Max Sea Level PressureIn, Mean Sea Level PressureIn, Min Sea Level PressureIn, Max VisibilityMiles, Mean VisibilityMiles, Min VisibilityMiles, Max Wind SpeedMPH, Mean Wind SpeedMPH, Max Gust SpeedMPH,PrecipitationIn, CloudCover, Events, WindDirDegrees
2012-10-1,57,48,39,32,24,18,75,42,21,30.40,30.35,30.29,10,10,10,15,8,22,0.00,1,Rain,309
2012-10-2,59,50,42,23,15,0,46,28,10,30.29,30.21,30.14,10,10,10,20,13,30,0.00,0,,266
2012-10-3,59,47,35,18,9,-22,41,22,5,30.19,30.12,30.08,10,10,10,28,16,51,0.00,3,,259
2012-10-4,46,39,32,12,-5,-26,41,17,5,30.18,30.13,30.04,10,10,10,21,13,36,0.00,1,,260
2012-10-5,41,36,30,28,8,-6,81,37,17,30.10,30.04,29.99,10,10,2,22,13,36,0.00,2,Snow,273
2012-10-6,33,27,21,14,7,0,74,47,29,30.08,30.04,30.00,10,10,10,16,11,23,0.00,1,,276
2012-10-7,35,29,23,3,-6,-17,43,24,10,30.09,30.05,30.00,10,10,10,16,9,25,0.00,0,,288
2012-10-8,46,39,32,-4,-15,-45,21,12,4,30.08,30.03,29.98,10,10,10,25,13,33,0.00,0,,261
2012-10-9,50,42,35,5,-3,-17,28,17,6,30.14,30.05,29.99,10,10,10,29,18,48,0.00,0,,276
2012-10-10,53,45,37,19,5,-17,34,21,5,30.19,30.15,30.12,10,10,10,24,14,36,0.00,2,,258
2012-10-11,55,50,44,21,18,14,39,31,20,30.21,30.18,30.14,10,10,10,16,11,21,0.00,3,,237
2012-10-12,53,43,33,36,28,18,93,60,30,30.19,30.09,29.97,10,8,0,30,13,36,0.00,5,Fog-Rain-Snow-Thunderstorm,194
2012-10-13,35,34,32,34,30,28,100,90,87,30.21,30.06,29.96,0,0,0,18,13,29,0.00,8,Fog-Snow,289
2012-10-14,,,,,,,,,,,,,,,,,,,0.00,,,-1
2012-10-15,50,46,39,28,23,16,61,44,31,30.23,30.15,30.09,10,10,10,18,11,28,0.00,1,,270
2012-10-16,48,40,30,37,28,23,93,66,40,30.11,29.92,29.75,10,8,0,34,20,53,0.00,5,Rain-Snow-Thunderstorm,268
2012-10-17,32,26,19,25,8,-8,80,50,18,30.02,29.88,29.78,10,10,10,34,25,50,0.00,2,,280
2012-10-18,37,30,23,9,5,1,54,36,22,30.20,30.13,30.03,10,10,10,25,19,36,0.00,0,,276
2012-10-19,46,40,33,14,11,5,44,31,22,30.20,30.12,30.04,10,10,10,21,14,33,0.00,0,,269
2012-10-20,53,46,39,12,4,-13,31,19,6,30.04,29.95,29.88,10,10,10,28,17,34,0.00,3,,232
2012-10-21,55,48,42,16,4,-8,34,19,8,29.97,29.93,29.90,10,10,10,21,14,28,0.00,0,,219
2012-10-22,50,46,41,27,20,9,57,40,19,29.94,29.89,29.83,10,10,10,28,19,39,0.00,4,,174
2012-10-23,46,42,37,23,15,1,49,34,16,29.87,29.83,29.78,10,10,10,29,21,41,0.00,5,,204
2012-10-24,41,30,19,27,21,14,93,70,41,29.85,29.79,29.71,10,5,0,25,16,43,0.00,8,Snow,222
2012-10-25,21,19,17,18,14,10,86,80,73,30.02,29.92,29.84,10,3,0,18,10,28,0.00,7,Snow,255
2012-10-26,21,18,14,16,11,9,86,79,73,30.17,30.08,29.98,10,5,0,20,11,26,0.00,7,Snow,258
2012-10-27,28,22,17,21,15,12,80,70,51,30.07,30.01,29.97,10,8,0,23,16,33,0.00,7,Snow,266
2012-10-28,33,30,26,28,23,18,93,74,60,30.17,30.11,30.04,10,9,0,25,16,32,0.00,7,Snow,279
2012-10-29,42,38,33,30,26,21,87,64,46,30.25,30.21,30.17,10,10,10,18,14,26,0.00,4,,259
2012-10-30,44,40,35,25,21,14,65,49,33,30.27,30.24,30.22,10,10,10,17,13,26,0.00,0,,265
2012-10-31,51,44,37,18,13,1,45,31,14,30.29,30.25,30.21,10,10,10,15,9,20,0.00,0,,260